Preble, New York
Current Conditions -  °F | °C
As of 5:15 PM on Monday 22 Dec 2014 (Local Time) from KN03 Reporting Station
Overcast Overcast  
Wind Chill:   Ceiling: 2500
Heat Index:   Visibility: 10mi
Dew Point:   Wind: 3mph
Humidity: 87%   Direction: 140°SE
Pressure: 30.15"   Gusts: NA
Location:  42.74°N, 76.15°W
Report Text: KN03 222215Z AUTO 14003KT 10SM BKN025 OVC034 02/00 A3015 RMK AO2
Loading
Personal Weather Stations






























Interactive Weather Map New forecast layout! Learn more

10-Day Weather Forecast

Advertisements
Track Severe Weather on mobile